Time;durP1;ratioP1;P1;durP2;ratioP2;P2;SDS_P1;SDS_P2;PMS_P1;PMS_P2;Temp;Humidity;BMP_temperature;BMP_pressure;BME280_temperature;BME280_humidity;BME280_pressure;Samples;Min_cycle;Max_cycle;Signal;HPM_P1;HPM_P2
2022/01/25 00:08:24;;;;;;;43.85;15.77;;;;;;;-8.25;69.55;100534.19;5013980;28;20104;-58
2022/01/25 00:28:45;;;;;;;16.35;6.38;;;;;;;-8.85;71.28;100495.81;5012343;28;20062;-57
2022/01/25 00:31:13;;;;;;;15.50;6.00;;;;;;;-8.73;71.17;100486.22;5014463;28;20042;-58
2022/01/25 00:33:52;;;;;;;11.60;5.53;;;;;;;-8.65;70.62;100483.44;5014136;28;20046;-53
2022/01/25 00:36:22;;;;;;;11.68;5.07;;;;;;;-8.68;70.13;100478.44;5014316;28;20060;-58
2022/01/25 00:38:51;;;;;;;14.48;4.80;;;;;;;-8.93;70.05;100485.09;5013645;28;20092;-59
2022/01/25 00:41:19;;;;;;;13.13;5.10;;;;;;;-9.01;70.51;100479.78;5014461;28;20046;-61
2022/01/25 00:43:47;;;;;;;15.80;5.78;;;;;;;-8.98;70.99;100469.50;5013792;28;20081;-59
2022/01/25 00:46:15;;;;;;;13.15;4.90;;;;;;;-8.88;70.98;100471.91;5013697;28;20050;-59
2022/01/25 00:48:46;;;;;;;11.02;5.20;;;;;;;-8.91;71.10;100466.91;5013683;28;20128;-62
2022/01/25 00:56:27;;;;;;;11.68;5.47;;;;;;;-8.68;69.65;100449.59;5014050;28;20053;-58
2022/01/25 00:58:54;;;;;;;10.98;4.32;;;;;;;-8.58;69.49;100442.06;5012291;28;20498;-59
2022/01/25 01:01:22;;;;;;;10.38;4.80;;;;;;;-8.58;70.17;100446.63;5013357;28;20053;-59
2022/01/25 01:03:49;;;;;;;14.23;6.18;;;;;;;-8.52;69.72;100437.78;5011681;28;20092;-57
2022/01/25 01:06:17;;;;;;;15.02;6.03;;;;;;;-8.41;69.30;100430.00;5013486;28;20466;-58
2022/01/25 01:08:45;;;;;;;11.60;5.35;;;;;;;-8.28;70.39;100421.25;5012055;28;20440;-58
2022/01/25 01:11:19;;;;;;;9.63;4.05;;;;;;;-8.32;69.94;100420.78;5013659;28;20054;-58
2022/01/25 01:45:33;;;;;;;17.10;6.72;;;;;;;-8.03;70.05;100347.78;5011101;28;20053;-63
2022/01/25 01:48:07;;;;;;;12.85;5.57;;;;;;;-8.02;69.40;100348.63;5013055;28;20046;-61
2022/01/25 01:50:37;;;;;;;12.32;5.10;;;;;;;-8.04;70.71;100340.72;5012081;28;20093;-61
2022/01/25 01:53:06;;;;;;;17.13;6.55;;;;;;;-8.06;70.66;100340.06;5012759;28;20084;-59
2022/01/25 01:55:35;;;;;;;11.98;5.57;;;;;;;-8.03;70.64;100333.44;5012325;28;20132;-62
2022/01/25 01:58:02;;;;;;;11.07;5.55;;;;;;;-8.02;69.73;100330.56;5012947;28;20543;-60
2022/01/25 02:00:40;;;;;;;18.02;6.30;;;;;;;-7.96;70.37;100334.34;5010848;28;20129;-60
2022/01/25 02:03:09;;;;;;;17.02;5.82;;;;;;;-8.04;69.90;100321.84;5013013;28;20469;-61
2022/01/25 02:05:37;;;;;;;20.50;6.22;;;;;;;-8.05;69.96;100314.75;5012268;28;20050;-59
2022/01/25 02:08:04;;;;;;;15.25;6.15;;;;;;;-8.02;70.35;100313.53;5013097;28;20584;-61
2022/01/25 02:10:31;;;;;;;12.40;5.60;;;;;;;-7.97;69.39;100316.47;5010671;28;20137;-61
2022/01/25 02:12:58;;;;;;;11.15;5.38;;;;;;;-7.95;70.46;100309.03;5012732;28;20103;-58
2022/01/25 02:15:26;;;;;;;10.70;4.38;;;;;;;-7.95;70.22;100314.44;5012074;28;20046;-60
2022/01/25 02:22:23;;;;;;;13.00;5.63;;;;;;;-8.13;70.76;100312.22;5012278;28;20049;-60
2022/01/25 02:23:29;;;;;;;15.52;5.00;;;;;;;-8.11;69.81;100306.63;5011817;28;20073;-56
2022/01/25 02:25:59;;;;;;;14.65;5.93;;;;;;;-8.08;70.88;100311.63;5012514;28;20088;-59
2022/01/25 02:28:30;;;;;;;13.55;5.20;;;;;;;-8.06;70.25;100314.94;5011720;28;20080;-57
2022/01/25 02:30:58;;;;;;;18.27;6.35;;;;;;;-8.04;70.88;100307.50;5012011;28;20052;-58
2022/01/25 02:33:25;;;;;;;16.60;5.00;;;;;;;-8.09;71.03;100304.53;5012082;28;20077;-59
2022/01/25 02:35:54;;;;;;;14.98;4.65;;;;;;;-8.10;71.06;100300.19;5010897;28;20052;-59
2022/01/25 02:38:24;;;;;;;23.17;5.93;;;;;;;-8.16;70.98;100301.81;5012532;28;20058;-60
2022/01/25 02:40:56;;;;;;;12.63;5.57;;;;;;;-8.11;70.91;100298.53;5025999;28;20141;-58
2022/01/25 02:43:24;;;;;;;13.23;5.88;;;;;;;-8.05;69.74;100295.84;5012396;28;20523;-59
2022/01/25 02:48:49;;;;;;;16.08;6.18;;;;;;;-8.01;70.69;100283.66;5011785;28;20049;-59
2022/01/25 02:51:16;;;;;;;16.40;6.28;;;;;;;-7.96;70.31;100285.78;5009425;28;20065;-58
2022/01/25 02:53:43;;;;;;;15.18;6.38;;;;;;;-7.92;70.71;100276.25;5011906;28;20058;-57
2022/01/25 02:56:13;;;;;;;9.95;4.75;;;;;;;-7.95;70.22;100276.63;5011943;28;20092;-61
2022/01/25 02:58:40;;;;;;;14.18;4.53;;;;;;;-8.07;69.92;100273.66;5011800;28;20053;-59
2022/01/25 03:01:08;;;;;;;14.60;5.28;;;;;;;-8.08;71.15;100261.16;5008212;28;20128;-61
2022/01/25 03:03:35;;;;;;;12.70;5.95;;;;;;;-8.03;70.78;100269.50;5011541;28;20052;-60
2022/01/25 03:06:03;;;;;;;13.93;5.35;;;;;;;-7.98;71.07;100271.63;5011508;28;20085;-60
2022/01/25 03:08:31;;;;;;;13.85;5.43;;;;;;;-7.95;70.10;100265.84;5010832;28;20049;-60
2022/01/25 03:10:58;;;;;;;14.30;5.38;;;;;;;-7.96;70.65;100251.50;5011527;28;20050;-59
2022/01/25 03:13:34;;;;;;;14.48;5.72;;;;;;;-7.98;70.66;100260.81;5012235;28;20050;-59
2022/01/25 03:16:05;;;;;;;13.13;5.25;;;;;;;-8.00;70.79;100252.09;5011743;28;20590;-61
2022/01/25 03:21:04;;;;;;;15.82;6.13;;;;;;;-7.90;70.12;100260.69;5009748;28;20474;-59
2022/01/25 03:23:33;;;;;;;16.30;6.13;;;;;;;-7.93;70.98;100255.69;5011638;28;20420;-60
2022/01/25 03:25:59;;;;;;;12.95;5.55;;;;;;;-8.06;70.24;100258.28;5011065;28;20056;-59
2022/01/25 03:28:26;;;;;;;16.73;6.60;;;;;;;-8.13;70.78;100252.00;5011592;28;20076;-59
2022/01/25 03:30:53;;;;;;;15.32;5.13;;;;;;;-8.16;70.42;100252.38;5010204;28;20162;-61
2022/01/25 03:33:21;;;;;;;13.00;5.82;;;;;;;-8.19;71.38;100247.38;5011717;28;20045;-59
2022/01/25 03:35:48;;;;;;;13.30;5.97;;;;;;;-8.24;70.65;100255.25;5011125;28;20052;-59
2022/01/25 03:38:15;;;;;;;14.65;5.07;;;;;;;-8.36;70.23;100246.88;5011599;28;20065;-59
2022/01/25 03:40:45;;;;;;;11.68;5.65;;;;;;;-8.32;71.07;100236.53;5011177;28;20061;-60
2022/01/25 03:43:14;;;;;;;13.10;6.33;;;;;;;-8.30;70.77;100229.91;5010201;28;20053;-55
2022/01/25 03:45:46;;;;;;;12.27;5.00;;;;;;;-8.25;70.39;100226.63;5010756;28;20399;-60
2022/01/25 03:50:43;;;;;;;14.80;5.90;;;;;;;-8.19;70.70;100225.78;5014355;28;20070;-57
2022/01/25 03:53:12;;;;;;;14.43;6.15;;;;;;;-8.20;70.02;100219.56;5015425;28;20057;-61
2022/01/25 03:55:39;;;;;;;14.88;5.45;;;;;;;-8.20;70.38;100219.56;5014861;28;20088;-58
2022/01/25 03:58:07;;;;;;;14.05;5.70;;;;;;;-8.21;70.47;100212.50;5014914;28;20073;-59
2022/01/25 04:00:35;;;;;;;13.98;5.78;;;;;;;-8.21;70.50;100211.66;5013083;28;20046;-61
2022/01/25 04:03:13;;;;;;;13.93;4.97;;;;;;;-8.27;70.41;100201.69;5014596;28;20049;-62
2022/01/25 04:08:13;;;;;;;12.30;5.53;;;;;;;-8.26;70.30;100208.78;5014880;28;20053;-61
2022/01/25 04:10:41;;;;;;;11.23;5.75;;;;;;;-8.21;70.42;100200.88;5014530;28;20467;-60
2022/01/25 04:13:08;;;;;;;14.40;5.88;;;;;;;-8.19;71.01;100202.34;5014986;28;20416;-57
2022/01/25 04:15:40;;;;;;;17.35;6.55;;;;;;;-8.20;69.48;100202.56;5014004;28;20041;-60
2022/01/25 04:18:32;;;;;;;16.20;6.78;;;;;;;-8.19;70.41;100198.81;5014318;28;20060;-60
2022/01/25 04:26:11;;;;;;;18.55;6.47;;;;;;;-8.14;70.60;100185.56;5013762;28;20054;-59
2022/01/25 04:28:38;;;;;;;16.38;6.28;;;;;;;-8.21;69.87;100179.28;5014830;28;20088;-59
2022/01/25 04:31:05;;;;;;;20.17;7.47;;;;;;;-8.26;70.70;100176.38;5014189;28;20141;-58
2022/01/25 04:33:41;;;;;;;19.75;6.75;;;;;;;-8.18;70.73;100178.88;5014279;28;20058;-60
2022/01/25 04:49:44;;;;;;;22.83;8.40;;;;;;;-8.29;70.75;100171.41;5013433;28;20057;-59
2022/01/25 04:52:16;;;;;;;24.63;7.53;;;;;;;-8.25;69.88;100168.09;5012158;28;20054;-62
2022/01/25 05:04:52;;;;;;;20.83;6.90;;;;;;;-8.43;70.88;100153.44;5013410;28;20085;-61
2022/01/25 05:07:39;;;;;;;24.92;8.57;;;;;;;-8.43;70.36;100148.88;5013679;28;20077;-61
2022/01/25 05:10:08;;;;;;;22.85;8.85;;;;;;;-8.32;70.07;100150.19;5012331;28;20572;-60
2022/01/25 05:12:45;;;;;;;18.98;8.38;;;;;;;-8.29;69.92;100147.09;5013536;28;20050;-61
2022/01/25 05:16:02;;;;;;;31.20;9.18;;;;;;;-8.46;70.12;100143.03;5013765;28;20056;-59
2022/01/25 05:18:37;;;;;;;25.17;9.10;;;;;;;-8.43;71.03;100135.41;5013104;28;20045;-61
2022/01/25 05:23:49;;;;;;;19.08;8.15;;;;;;;-8.36;70.75;100121.94;5013778;28;20050;-62
2022/01/25 05:26:16;;;;;;;29.75;8.18;;;;;;;-8.30;70.12;100126.53;5012579;28;20092;-59
2022/01/25 05:28:43;;;;;;;19.08;7.15;;;;;;;-8.42;70.72;100118.19;5013410;28;20085;-61
2022/01/25 05:31:10;;;;;;;24.25;9.02;;;;;;;-8.46;71.08;100121.47;5012737;28;20528;-60
2022/01/25 05:33:37;;;;;;;22.88;8.13;;;;;;;-8.45;70.12;100112.34;5013440;28;20058;-59
2022/01/25 05:36:05;;;;;;;21.20;7.82;;;;;;;-8.54;71.01;100108.13;5012904;28;20515;-58
2022/01/25 05:38:31;;;;;;;19.20;6.95;;;;;;;-8.50;70.03;100104.84;5013466;28;20137;-60
2022/01/25 05:41:01;;;;;;;22.35;8.35;;;;;;;-8.52;70.98;100100.69;5012423;28;20064;-59
2022/01/25 05:46:18;;;;;;;27.92;9.30;;;;;;;-8.48;71.07;100093.84;5011430;28;20045;-59
2022/01/25 05:48:47;;;;;;;24.90;8.83;;;;;;;-8.42;71.04;100084.97;5011226;28;20045;-61
2022/01/25 05:51:14;;;;;;;24.88;9.52;;;;;;;-8.32;70.67;100082.75;5010960;28;20050;-61
2022/01/25 05:53:42;;;;;;;25.50;9.93;;;;;;;-8.35;70.40;100058.88;5013058;28;20496;-63
2022/01/25 05:56:09;;;;;;;22.92;9.80;;;;;;;-8.19;69.57;100080.09;5011116;28;20046;-62
2022/01/25 05:58:36;;;;;;;29.60;10.55;;;;;;;-8.11;70.84;100082.63;5012751;28;20542;-63
2022/01/25 06:01:03;;;;;;;19.83;7.75;;;;;;;-8.15;70.89;100081.34;5011379;28;20850;-62
2022/01/25 06:03:31;;;;;;;23.38;8.70;;;;;;;-8.20;70.63;100075.75;5010885;28;20096;-63
2022/01/25 06:05:58;;;;;;;23.45;10.15;;;;;;;-8.15;71.09;100068.72;5012589;28;20042;-63
2022/01/25 06:08:25;;;;;;;24.33;8.48;;;;;;;-8.08;69.54;100077.66;5011163;28;20404;-63
2022/01/25 06:10:52;;;;;;;25.45;10.07;;;;;;;-8.08;70.95;100071.44;5010791;28;20057;-62
2022/01/25 06:13:19;;;;;;;30.95;9.50;;;;;;;-8.03;70.13;100074.34;5008669;28;20080;-63
2022/01/25 06:15:46;;;;;;;20.80;7.38;;;;;;;-8.05;70.40;100071.03;5011554;28;20049;-63
2022/01/25 06:18:13;;;;;;;24.70;8.73;;;;;;;-8.10;70.39;100070.81;5011264;28;20057;-62
2022/01/25 06:20:40;;;;;;;24.98;10.18;;;;;;;-8.08;70.51;100064.16;5012009;28;20050;-62
2022/01/25 06:23:07;;;;;;;26.95;9.55;;;;;;;-7.95;69.53;100056.13;5011432;28;20045;-64
2022/01/25 06:25:34;;;;;;;22.45;9.10;;;;;;;-7.79;70.74;100044.97;5011150;28;20128;-63
2022/01/25 06:28:02;;;;;;;25.50;8.88;;;;;;;-7.68;70.65;100051.66;5011918;28;20058;-61
2022/01/25 06:30:29;;;;;;;21.10;9.10;;;;;;;-7.62;69.58;100058.94;5012143;28;20108;-60
2022/01/25 06:32:56;;;;;;;21.55;9.60;;;;;;;-7.56;69.87;100050.03;5011716;28;20045;-58
2022/01/25 06:35:23;;;;;;;21.95;8.52;;;;;;;-7.65;70.39;100040.44;5010707;28;20513;-63
2022/01/25 06:37:51;;;;;;;26.83;10.15;;;;;;;-7.79;70.33;100044.97;5010227;28;20492;-60
2022/01/25 06:40:18;;;;;;;25.75;10.05;;;;;;;-7.77;70.41;100029.41;5012108;28;20084;-59
2022/01/25 06:42:45;;;;;;;26.05;7.85;;;;;;;-7.80;69.96;100010.06;5010838;28;20050;-61
2022/01/25 06:45:16;;;;;;;21.13;8.82;;;;;;;-7.76;70.27;100003.22;5010682;28;20053;-59
2022/01/25 06:47:44;;;;;;;18.10;7.93;;;;;;;-7.75;69.63;100007.59;5010507;28;20049;-62
2022/01/25 06:50:14;;;;;;;17.08;6.93;;;;;;;-7.74;69.43;100002.00;5010751;28;20524;-61
2022/01/25 06:52:42;;;;;;;16.95;6.00;;;;;;;-7.78;69.65;99998.03;5007558;28;20527;-59
2022/01/25 06:55:19;;;;;;;19.45;7.70;;;;;;;-7.80;70.00;99991.19;5012068;28;20456;-60
2022/01/25 06:57:46;;;;;;;19.00;7.57;;;;;;;-7.75;70.30;99991.41;5011743;28;20140;-63
2022/01/25 07:00:20;;;;;;;20.13;7.85;;;;;;;-7.52;69.70;99985.63;5012266;28;20513;-61
2022/01/25 07:02:47;;;;;;;18.45;7.85;;;;;;;-7.35;69.53;99987.72;5011444;28;20050;-60
2022/01/25 07:05:14;;;;;;;17.90;7.28;;;;;;;-7.24;68.85;99994.38;5010519;28;20054;-60
2022/01/25 07:07:42;;;;;;;26.45;8.57;;;;;;;-7.12;69.12;99984.59;5010066;28;20288;-60
2022/01/25 07:10:09;;;;;;;23.95;9.27;;;;;;;-7.06;68.80;99987.31;5010504;28;20061;-62
2022/01/25 07:12:36;;;;;;;20.60;8.15;;;;;;;-7.03;68.55;99978.78;5011109;28;20073;-59
2022/01/25 07:15:04;;;;;;;21.45;8.48;;;;;;;-6.94;68.29;99979.38;5010286;28;20394;-61
2022/01/25 07:17:31;;;;;;;21.95;8.25;;;;;;;-6.87;68.07;99980.22;5012077;28;20064;-62
2022/01/25 07:19:58;;;;;;;24.35;8.43;;;;;;;-6.77;68.71;99986.03;5011011;28;20046;-61
2022/01/25 07:22:25;;;;;;;24.50;8.57;;;;;;;-6.67;67.74;99989.94;5015173;28;20050;-61
2022/01/25 07:24:52;;;;;;;20.05;8.82;;;;;;;-6.72;68.42;99987.03;5015107;28;20062;-62
2022/01/25 07:27:19;;;;;;;37.85;10.05;;;;;;;-6.78;68.87;99990.59;5014858;28;20053;-64
2022/01/25 07:29:46;;;;;;;19.23;7.53;;;;;;;-6.82;69.19;99988.50;5014587;28;20124;-64
2022/01/25 07:32:13;;;;;;;23.70;7.65;;;;;;;-6.77;68.70;99981.44;5014719;28;20068;-63
2022/01/25 07:34:42;;;;;;;19.80;7.17;;;;;;;-6.86;68.40;99980.00;5012407;28;20054;-63
2022/01/25 07:37:10;;;;;;;14.85;6.40;;;;;;;-6.84;68.31;99986.03;5013565;28;20053;-63
2022/01/25 07:39:38;;;;;;;9.73;4.13;;;;;;;-6.88;68.76;99986.66;5013915;28;20066;-65
2022/01/25 07:42:18;;;;;;;14.50;6.38;;;;;;;-6.88;68.86;99987.50;5015236;28;20100;-62
2022/01/25 07:44:48;;;;;;;18.85;6.88;;;;;;;-6.79;68.02;99978.13;5014139;28;20130;-64
2022/01/25 07:47:19;;;;;;;14.48;6.28;;;;;;;-6.68;68.41;99968.53;5013362;28;20041;-64
2022/01/25 07:49:54;;;;;;;10.80;5.45;;;;;;;-6.75;68.47;99968.53;5011657;28;20511;-63
2022/01/25 07:52:23;;;;;;;24.98;7.63;;;;;;;-6.78;68.59;99963.53;5014650;28;20050;-63
2022/01/25 07:54:50;;;;;;;15.05;7.55;;;;;;;-6.73;68.00;99955.63;5013705;28;20084;-62
2022/01/25 07:57:17;;;;;;;15.52;6.57;;;;;;;-6.79;68.06;99953.78;5014575;28;20068;-63
2022/01/25 07:59:44;;;;;;;20.05;6.72;;;;;;;-6.76;68.49;99953.34;5013869;28;20064;-63
2022/01/25 08:02:16;;;;;;;19.90;6.82;;;;;;;-6.70;67.86;99946.25;5014404;28;20449;-63
2022/01/25 08:04:47;;;;;;;15.75;6.95;;;;;;;-6.68;67.79;99942.31;5012745;28;20505;-62
2022/01/25 08:07:14;;;;;;;14.48;6.43;;;;;;;-6.66;68.03;99913.16;5012560;28;20054;-62
2022/01/25 08:09:55;;;;;;;15.13;6.55;;;;;;;-6.54;67.72;99922.28;5010545;28;20080;-63
2022/01/25 08:12:36;;;;;;;;;;;;;;;-6.52;67.82;99913.94;5012469;28;20460;-62
2022/01/25 08:15:10;;;;;;;18.05;7.05;;;;;;;-6.43;67.65;99910.78;5001251;28;19925;-63
2022/01/25 08:17:51;;;;;;;13.85;6.88;;;;;;;-6.34;67.26;99901.38;5005597;28;20065;-63
2022/01/25 08:20:18;;;;;;;23.17;7.63;;;;;;;-6.38;67.84;99894.75;5013613;28;20049;-63
2022/01/25 08:22:46;;;;;;;16.27;6.75;;;;;;;-6.38;67.96;99883.09;5011556;28;20073;-63
2022/01/25 08:25:13;;;;;;;12.98;6.63;;;;;;;-6.29;67.20;99882.63;5013778;28;20140;-64
2022/01/25 08:27:43;;;;;;;18.02;7.07;;;;;;;-6.19;67.32;99882.97;5014902;28;20132;-63
2022/01/25 08:30:14;;;;;;;12.00;5.88;;;;;;;-6.32;66.94;99872.25;5013861;28;20062;-64
2022/01/25 08:32:45;;;;;;;13.20;5.32;;;;;;;-6.45;67.76;99879.59;5013956;28;20058;-63
2022/01/25 08:35:13;;;;;;;18.73;7.03;;;;;;;-6.48;67.63;99875.44;5013636;28;20584;-62
2022/01/25 08:37:45;;;;;;;14.63;5.78;;;;;;;-6.46;67.65;99876.06;5014328;28;20054;-64
2022/01/25 08:40:15;;;;;;;12.10;5.50;;;;;;;-6.49;67.89;99865.66;5013655;28;20085;-65
2022/01/25 08:42:47;;;;;;;14.40;6.10;;;;;;;-6.35;67.67;99855.59;5013429;28;20083;-63
2022/01/25 08:45:18;;;;;;;13.30;5.00;;;;;;;-6.26;67.14;99867.81;5012696;28;20161;-63
2022/01/25 08:47:49;;;;;;;13.95;5.57;;;;;;;-6.36;67.27;99870.19;5009699;28;20057;-64
2022/01/25 08:50:16;;;;;;;13.57;6.63;;;;;;;-6.52;68.21;99855.25;5011931;28;20104;-64
2022/01/25 08:52:43;;;;;;;39.08;9.98;;;;;;;-6.37;67.64;99853.09;5012280;28;20080;-63
2022/01/25 08:55:30;;;;;;;11.90;6.65;;;;;;;-6.18;67.31;99857.59;5009700;28;20137;-63
2022/01/25 08:57:59;;;;;;;20.67;7.53;;;;;;;-6.08;67.15;99857.94;5006712;28;20512;-61
2022/01/25 09:00:29;;;;;;;14.80;7.20;;;;;;;-5.96;67.30;99850.78;5009459;28;20045;-62
2022/01/25 09:02:59;;;;;;;15.50;6.93;;;;;;;-5.82;67.27;99852.34;5012362;28;20049;-62
2022/01/25 09:05:27;;;;;;;12.00;6.05;;;;;;;-5.83;66.94;99842.53;5012741;28;20421;-62
2022/01/25 09:07:57;;;;;;;14.68;4.13;;;;;;;-5.96;67.33;99845.34;5013224;28;20443;-59
2022/01/25 09:10:27;;;;;;;12.37;5.77;;;;;;;-6.19;67.72;99833.44;5012799;28;20054;-64
2022/01/25 09:12:54;;;;;;;;;;;;;;;-6.17;67.84;99832.19;5013761;28;20153;-63
2022/01/25 09:15:21;;;;;;;14.05;5.63;;;;;;;-6.12;67.99;99829.66;5012648;28;20285;-62
2022/01/25 09:17:48;;;;;;;15.30;6.22;;;;;;;-6.03;68.12;99820.22;5013163;28;20049;-61
2022/01/25 09:20:16;;;;;;;12.23;5.63;;;;;;;-5.99;67.22;99826.00;5013143;28;20053;-62
2022/01/25 09:22:43;;;;;;;15.52;6.38;;;;;;;-5.97;68.06;99804.97;5012266;28;20044;-62
2022/01/25 09:25:28;;;;;;;11.65;5.80;;;;;;;-5.85;67.99;99797.78;5011705;28;20050;-61
2022/01/25 09:27:55;;;;;;;24.00;8.65;;;;;;;-5.76;67.24;99802.66;5012873;28;20515;-62
2022/01/25 09:30:23;;;;;;;11.52;6.03;;;;;;;-5.64;67.25;99791.94;5012916;28;20049;-61
2022/01/25 09:32:50;;;;;;;18.40;6.70;;;;;;;-5.51;67.04;99780.16;5013382;28;20492;-62
2022/01/25 09:35:17;;;;;;;12.30;6.00;;;;;;;-5.50;66.93;99787.22;5011931;28;20140;-63
2022/01/25 09:37:44;;;;;;;9.20;4.40;;;;;;;-5.48;66.68;99795.94;5012471;28;20141;-62
2022/01/25 09:40:12;;;;;;;12.68;5.10;;;;;;;-5.55;66.65;99792.47;5011583;28;20065;-61
2022/01/25 09:42:40;;;;;;;10.95;5.03;;;;;;;-5.51;66.68;99783.66;5015183;28;20164;-61
2022/01/25 09:45:08;;;;;;;8.10;4.07;;;;;;;-5.45;66.66;99781.97;5017214;28;20040;-61
2022/01/25 09:47:37;;;;;;;11.93;5.18;;;;;;;-5.48;66.68;99766.16;5011998;28;20045;-57
2022/01/25 09:50:04;;;;;;;11.88;5.38;;;;;;;-5.41;66.48;99758.75;5011826;28;20088;-63
2022/01/25 09:52:32;;;;;;;8.70;4.65;;;;;;;-5.36;66.67;99767.06;5011892;28;20475;-61
2022/01/25 09:55:02;;;;;;;12.10;5.63;;;;;;;-5.30;66.71;99741.75;5012180;28;20049;-62
2022/01/25 09:57:29;;;;;;;9.25;4.63;;;;;;;-5.31;66.59;99740.91;5013098;28;20052;-61
2022/01/25 09:59:56;;;;;;;10.82;4.30;;;;;;;-5.42;66.61;99738.16;5012334;28;20116;-63
2022/01/25 10:03:20;;;;;;;8.10;4.30;;;;;;;-5.46;66.68;99736.91;5010653;28;20137;-64
2022/01/25 10:05:45;;;;;;;14.13;5.03;;;;;;;-5.47;66.38;99719.84;5008469;28;20049;-62
2022/01/25 10:08:17;;;;;;;14.82;5.18;;;;;;;-5.41;66.40;99718.13;5005753;28;20104;-63
2022/01/25 10:10:46;;;;;;;56.25;15.35;;;;;;;-5.35;66.56;99714.50;5011064;28;20050;-64
2022/01/25 10:13:21;;;;;;;18.80;8.75;;;;;;;-5.35;66.67;99717.22;5011958;28;20045;-64
2022/01/25 10:16:01;;;;;;;9.93;4.28;;;;;;;-5.28;66.73;99717.94;5009198;28;20057;-64
2022/01/25 10:18:50;;;;;;;8.77;4.63;;;;;;;-5.30;66.25;99717.38;5011839;28;20748;-63
2022/01/25 10:21:20;;;;;;;9.85;4.28;;;;;;;-5.40;66.44;99711.63;5012123;28;20050;-62
2022/01/25 10:51:06;;;;;;;11.85;5.72;;;;;;;-5.60;66.45;99648.72;5011061;28;20097;-63
2022/01/25 10:53:34;;;;;;;16.92;6.22;;;;;;;-5.52;66.47;99632.97;5008459;28;20053;-63
2022/01/25 10:56:02;;;;;;;7.70;4.55;;;;;;;-5.41;66.48;99628.69;5014081;28;20045;-64
2022/01/25 10:58:29;;;;;;;9.73;4.50;;;;;;;-5.44;66.67;99623.72;5014377;28;20069;-63
2022/01/25 11:00:59;;;;;;;10.85;4.13;;;;;;;-5.63;66.35;99623.72;5013720;28;20148;-63
2022/01/25 11:03:39;;;;;;;9.10;4.70;;;;;;;-5.76;66.93;99618.47;5013858;28;20056;-63
2022/01/25 11:06:09;;;;;;;;;;;;;;;-5.77;67.14;99605.97;5014422;28;20425;-64
2022/01/25 11:08:38;;;;;;;11.05;4.38;;;;;;;-5.84;67.19;99610.69;5009169;28;19931;-64
2022/01/25 11:11:09;;;;;;;9.75;4.70;;;;;;;-5.98;67.26;99595.63;5014271;28;20051;-63
2022/01/25 11:13:40;;;;;;;11.52;4.05;;;;;;;-6.05;67.47;99603.00;5015199;28;20045;-62
2022/01/25 11:16:12;;;;;;;9.95;4.38;;;;;;;-6.05;67.30;99588.63;5016136;28;20544;-63
2022/01/25 11:18:40;;;;;;;8.25;4.15;;;;;;;-6.12;67.47;99586.00;5015514;28;20058;-63
2022/01/25 11:21:10;;;;;;;8.15;4.35;;;;;;;-6.22;67.52;99580.28;5015609;28;20416;-64
2022/01/25 11:23:38;;;;;;;11.80;4.43;;;;;;;-6.26;67.48;99584.50;5015364;28;20050;-63
2022/01/25 11:26:11;;;;;;;8.70;4.53;;;;;;;-6.24;67.50;99578.84;5015721;28;20100;-63
2022/01/25 11:28:40;;;;;;;14.70;5.22;;;;;;;-6.15;68.12;99578.34;5015194;28;20077;-64
2022/01/25 11:31:12;;;;;;;13.15;5.32;;;;;;;-6.04;67.79;99577.56;5015491;28;20056;-62
2022/01/25 11:33:43;;;;;;;11.32;4.72;;;;;;;-5.93;67.34;99570.56;5014820;28;20416;-63
2022/01/25 11:36:11;;;;;;;11.77;4.80;;;;;;;-5.90;67.20;99557.41;5015241;28;20539;-64
2022/01/25 11:42:09;;;;;;;10.35;4.57;;;;;;;-5.69;67.29;99558.78;5008683;28;20049;-64
2022/01/25 11:44:46;;;;;;;8.27;4.25;;;;;;;-5.82;67.02;99559.84;5014668;28;20144;-63
2022/01/25 11:47:16;;;;;;;10.57;4.97;;;;;;;-5.83;67.72;99555.44;5014130;28;20065;-62
2022/01/25 11:50:11;;;;;;;10.50;3.63;;;;;;;-5.76;67.56;99553.47;5014522;28;20054;-63
2022/01/25 11:52:52;;;;;;;7.82;4.22;;;;;;;-6.00;67.32;99546.31;5009990;28;20085;-61
2022/01/25 11:55:24;;;;;;;8.93;4.05;;;;;;;-6.18;67.93;99554.44;5013169;28;20111;-61
2022/01/25 11:57:57;;;;;;;12.77;4.35;;;;;;;-6.30;67.65;99567.06;5011654;28;20135;-62
2022/01/25 12:00:36;;;;;;;12.05;4.65;;;;;;;-6.33;68.02;99556.69;5013581;28;20049;-61
2022/01/25 12:03:20;;;;;;;9.63;4.78;;;;;;;-6.19;67.65;99562.78;5013835;28;20046;-61
2022/01/25 12:06:04;;;;;;;8.48;4.20;;;;;;;-6.11;67.78;99563.28;5012771;28;20056;-61
2022/01/25 12:12:06;;;;;;;8.50;4.32;;;;;;;-6.01;67.07;99554.66;5011234;28;20057;-62
2022/01/25 12:14:25;;;;;;;10.75;4.35;;;;;;;-6.18;67.20;99559.84;5013845;28;20132;-63
2022/01/25 12:16:54;;;;;;;9.95;4.68;;;;;;;-6.24;67.75;99565.31;5013985;28;20464;-64
2022/01/25 12:19:51;;;;;;;8.45;3.92;;;;;;;-6.20;67.83;99551.13;5014022;28;20085;-63
2022/01/25 12:22:38;;;;;;;7.50;4.00;;;;;;;-6.23;67.47;99556.13;5013599;28;20452;-62
2022/01/25 12:25:29;;;;;;;7.32;3.72;;;;;;;-6.30;67.61;99545.41;5014354;28;20448;-63
2022/01/25 12:28:09;;;;;;;8.07;3.80;;;;;;;-6.36;67.67;99543.59;5027256;28;20092;-60
2022/01/25 12:30:40;;;;;;;9.98;4.13;;;;;;;-6.35;67.81;99552.53;5011770;28;20111;-62
2022/01/25 12:33:26;;;;;;;10.63;4.45;;;;;;;-6.28;67.98;99551.41;5012475;28;20112;-63
2022/01/25 12:35:59;;;;;;;8.57;4.07;;;;;;;-6.30;67.71;99555.41;5011757;28;20061;-61
2022/01/25 12:38:51;;;;;;;8.88;4.38;;;;;;;-6.23;67.92;99551.56;5013957;28;20417;-61
2022/01/25 12:41:22;;;;;;;9.98;4.70;;;;;;;-6.25;67.67;99547.44;5011086;28;20056;-62
2022/01/25 12:43:53;;;;;;;16.55;6.25;;;;;;;-6.22;68.03;99542.38;5013686;28;20078;-62
2022/01/25 12:46:26;;;;;;;8.63;4.25;;;;;;;-6.17;67.75;99520.88;5013987;28;20188;-61
2022/01/25 12:48:57;;;;;;;9.32;4.30;;;;;;;-6.16;67.81;99527.94;5013351;28;20112;-62
2022/01/25 12:51:26;;;;;;;93.70;26.25;;;;;;;-6.12;68.11;99526.47;5014052;28;20097;-58
2022/01/25 12:53:56;;;;;;;10.48;4.68;;;;;;;-6.05;67.79;99520.94;5013413;28;20060;-62
2022/01/25 12:56:34;;;;;;;11.10;5.15;;;;;;;-6.05;67.45;99520.94;5013990;28;20149;-61
2022/01/25 12:59:06;;;;;;;9.93;4.60;;;;;;;-6.03;67.67;99525.09;5013134;28;20464;-63
2022/01/25 13:01:37;;;;;;;9.52;4.68;;;;;;;-5.99;67.91;99520.88;5014141;28;20255;-61
2022/01/25 13:04:06;;;;;;;9.40;4.53;;;;;;;-5.96;67.94;99506.03;5013460;28;20046;-60
2022/01/25 13:06:38;;;;;;;11.85;5.03;;;;;;;-5.96;67.34;99506.03;5013175;28;20579;-62
2022/01/25 13:09:19;;;;;;;9.23;4.15;;;;;;;-6.02;67.94;99493.41;5012767;28;20176;-62
2022/01/25 13:17:15;;;;;;;8.77;4.07;;;;;;;-6.21;68.23;99499.91;5013394;28;20081;-63
2022/01/25 13:19:56;;;;;;;9.00;4.90;;;;;;;-6.27;68.09;99485.41;5009163;28;20116;-62
2022/01/25 13:22:39;;;;;;;9.48;4.93;;;;;;;-6.25;67.30;99485.19;5013372;28;20050;-60
2022/01/25 13:27:51;;;;;;;9.73;4.70;;;;;;;-6.26;67.71;99484.34;5012814;28;20050;-62
2022/01/25 13:33:08;;;;;;;7.72;4.13;;;;;;;-6.22;67.26;99474.72;5011690;28;20088;-62
2022/01/25 13:35:39;;;;;;;13.07;5.53;;;;;;;-6.25;67.61;99486.00;5010888;28;20581;-61
2022/01/25 13:38:13;;;;;;;12.88;5.15;;;;;;;-6.34;67.39;99476.53;5013299;28;20504;-63
2022/01/25 13:46:33;;;;;;;14.68;4.47;;;;;;;-6.56;68.14;99477.22;5009573;28;20053;-62
2022/01/25 13:49:07;;;;;;;23.00;8.65;;;;;;;-6.52;67.93;99467.56;5010671;28;20050;-61
2022/01/25 13:51:49;;;;;;;10.60;4.25;;;;;;;-6.63;68.02;99471.84;5011026;28;20062;-62
2022/01/25 13:54:25;;;;;;;10.95;4.65;;;;;;;-6.79;67.68;99464.34;5009475;28;20053;-61
2022/01/25 13:56:54;;;;;;;12.18;5.47;;;;;;;-6.93;68.31;99452.00;5011124;28;20058;-60
2022/01/25 13:59:24;;;;;;;13.68;5.57;;;;;;;-6.89;68.45;99453.22;5012042;28;20409;-61
2022/01/25 14:01:52;;;;;;;12.75;5.45;;;;;;;-6.84;68.78;99461.47;5004281;28;20054;-60
2022/01/25 14:04:25;;;;;;;13.38;5.50;;;;;;;-6.72;68.55;99461.59;5011808;28;20481;-61
2022/01/25 14:06:57;;;;;;;12.30;4.97;;;;;;;-6.67;68.11;99451.72;5004495;28;20465;-61
2022/01/25 14:09:31;;;;;;;11.07;4.65;;;;;;;-6.66;67.53;99463.38;5011426;28;20042;-63
2022/01/25 14:25:58;;;;;;;13.05;5.40;;;;;;;-6.67;68.73;99459.00;5009328;28;20149;-62
2022/01/25 14:28:27;;;;;;;17.80;6.28;;;;;;;-6.63;68.09;99461.03;5010932;28;20050;-61
2022/01/25 14:30:56;;;;;;;14.57;6.05;;;;;;;-6.67;68.40;99456.31;5010423;28;20077;-62
2022/01/25 14:33:30;;;;;;;16.63;6.03;;;;;;;-6.68;68.49;99452.78;5011844;28;20128;-62
2022/01/25 14:36:08;;;;;;;17.30;6.75;;;;;;;-6.62;69.09;99453.75;5009808;28;20084;-61